sensor_id;sensor_type;location;lat;lon;timestamp;temperature;humidity
23377;DHT22;14353;46.070;13.222;2023-09-08T00:00:18;26.10;51.00
23377;DHT22;14353;46.070;13.222;2023-09-08T00:02:43;26.00;51.00
23377;DHT22;14353;46.070;13.222;2023-09-08T00:05:09;25.90;51.10
23377;DHT22;14353;46.070;13.222;2023-09-08T00:07:36;25.90;51.20
23377;DHT22;14353;46.070;13.222;2023-09-08T00:10:01;25.90;51.50
23377;DHT22;14353;46.070;13.222;2023-09-08T00:12:27;25.90;51.40
23377;DHT22;14353;46.070;13.222;2023-09-08T00:14:53;25.90;51.40
23377;DHT22;14353;46.070;13.222;2023-09-08T00:17:18;25.80;51.60
23377;DHT22;14353;46.070;13.222;2023-09-08T00:19:44;25.80;51.70
23377;DHT22;14353;46.070;13.222;2023-09-08T00:22:10;25.70;52.00
23377;DHT22;14353;46.070;13.222;2023-09-08T00:24:35;25.60;52.30
23377;DHT22;14353;46.070;13.222;2023-09-08T00:27:01;25.50;52.30
23377;DHT22;14353;46.070;13.222;2023-09-08T00:29:27;25.50;52.60
23377;DHT22;14353;46.070;13.222;2023-09-08T00:31:53;25.40;52.60
23377;DHT22;14353;46.070;13.222;2023-09-08T00:34:18;25.30;52.60
23377;DHT22;14353;46.070;13.222;2023-09-08T00:36:44;25.20;52.60
23377;DHT22;14353;46.070;13.222;2023-09-08T00:39:10;25.30;52.50
23377;DHT22;14353;46.070;13.222;2023-09-08T00:41:35;25.20;52.30
23377;DHT22;14353;46.070;13.222;2023-09-08T00:44:01;25.20;52.30
23377;DHT22;14353;46.070;13.222;2023-09-08T00:46:27;25.10;52.50
23377;DHT22;14353;46.070;13.222;2023-09-08T00:48:54;25.20;52.70
23377;DHT22;14353;46.070;13.222;2023-09-08T00:51:21;25.20;52.50
23377;DHT22;14353;46.070;13.222;2023-09-08T00:53:46;25.30;52.40
23377;DHT22;14353;46.070;13.222;2023-09-08T00:56:12;25.40;52.40
23377;DHT22;14353;46.070;13.222;2023-09-08T00:58:38;25.40;52.20
23377;DHT22;14353;46.070;13.222;2023-09-08T01:01:04;25.30;52.40
23377;DHT22;14353;46.070;13.222;2023-09-08T01:03:31;25.20;52.40
23377;DHT22;14353;46.070;13.222;2023-09-08T01:05:57;25.20;52.70
23377;DHT22;14353;46.070;13.222;2023-09-08T01:08:22;25.10;52.60
23377;DHT22;14353;46.070;13.222;2023-09-08T01:10:48;25.00;52.90
23377;DHT22;14353;46.070;13.222;2023-09-08T01:13:14;25.00;52.70
23377;DHT22;14353;46.070;13.222;2023-09-08T01:15:40;25.00;53.10
23377;DHT22;14353;46.070;13.222;2023-09-08T01:18:05;25.00;52.80
23377;DHT22;14353;46.070;13.222;2023-09-08T01:20:46;25.00;52.50
23377;DHT22;14353;46.070;13.222;2023-09-08T01:26:18;25.20;52.10
23377;DHT22;14353;46.070;13.222;2023-09-08T01:28:49;25.20;51.70
23377;DHT22;14353;46.070;13.222;2023-09-08T01:31:16;25.30;51.60
23377;DHT22;14353;46.070;13.222;2023-09-08T01:33:42;25.30;51.40
23377;DHT22;14353;46.070;13.222;2023-09-08T01:36:08;25.30;51.20
23377;DHT22;14353;46.070;13.222;2023-09-08T01:38:34;25.30;51.30
23377;DHT22;14353;46.070;13.222;2023-09-08T01:41:00;25.20;51.30
23377;DHT22;14353;46.070;13.222;2023-09-08T01:43:27;25.00;51.90
23377;DHT22;14353;46.070;13.222;2023-09-08T01:45:53;25.00;51.90
23377;DHT22;14353;46.070;13.222;2023-09-08T01:48:18;24.90;52.00
23377;DHT22;14353;46.070;13.222;2023-09-08T01:50:44;24.90;51.80
23377;DHT22;14353;46.070;13.222;2023-09-08T01:53:11;24.90;51.80
23377;DHT22;14353;46.070;13.222;2023-09-08T01:55:37;24.80;52.10
23377;DHT22;14353;46.070;13.222;2023-09-08T01:58:03;24.70;52.40
23377;DHT22;14353;46.070;13.222;2023-09-08T02:00:28;24.60;52.40
23377;DHT22;14353;46.070;13.222;2023-09-08T02:02:54;24.60;52.40
23377;DHT22;14353;46.070;13.222;2023-09-08T02:05:20;24.60;52.40
23377;DHT22;14353;46.070;13.222;2023-09-08T02:07:45;24.80;52.10
23377;DHT22;14353;46.070;13.222;2023-09-08T02:10:11;24.70;52.00
23377;DHT22;14353;46.070;13.222;2023-09-08T02:12:37;24.70;51.90
23377;DHT22;14353;46.070;13.222;2023-09-08T02:15:03;24.70;51.80
23377;DHT22;14353;46.070;13.222;2023-09-08T02:17:31;24.70;51.90
23377;DHT22;14353;46.070;13.222;2023-09-08T02:19:57;24.60;51.90
23377;DHT22;14353;46.070;13.222;2023-09-08T02:22:23;24.60;51.90
23377;DHT22;14353;46.070;13.222;2023-09-08T02:24:49;24.50;52.10
23377;DHT22;14353;46.070;13.222;2023-09-08T02:27:14;24.50;52.00
23377;DHT22;14353;46.070;13.222;2023-09-08T02:29:40;24.40;52.30
23377;DHT22;14353;46.070;13.222;2023-09-08T02:32:06;24.40;52.10
23377;DHT22;14353;46.070;13.222;2023-09-08T02:34:35;24.40;52.20
23377;DHT22;14353;46.070;13.222;2023-09-08T02:37:02;24.40;52.00
23377;DHT22;14353;46.070;13.222;2023-09-08T02:39:27;24.50;51.80
23377;DHT22;14353;46.070;13.222;2023-09-08T02:41:53;24.60;51.60
23377;DHT22;14353;46.070;13.222;2023-09-08T02:44:20;24.60;51.20
23377;DHT22;14353;46.070;13.222;2023-09-08T02:46:47;24.60;51.20
23377;DHT22;14353;46.070;13.222;2023-09-08T02:49:13;24.60;51.20
23377;DHT22;14353;46.070;13.222;2023-09-08T02:51:39;24.50;51.30
23377;DHT22;14353;46.070;13.222;2023-09-08T02:54:05;24.50;51.20
23377;DHT22;14353;46.070;13.222;2023-09-08T02:56:30;24.50;51.20
23377;DHT22;14353;46.070;13.222;2023-09-08T02:58:56;24.50;51.10
23377;DHT22;14353;46.070;13.222;2023-09-08T03:01:22;24.40;51.20
23377;DHT22;14353;46.070;13.222;2023-09-08T03:03:48;24.40;51.30
23377;DHT22;14353;46.070;13.222;2023-09-08T03:06:15;24.40;51.20
23377;DHT22;14353;46.070;13.222;2023-09-08T03:08:41;24.50;50.90
23377;DHT22;14353;46.070;13.222;2023-09-08T03:11:08;24.40;50.90
23377;DHT22;14353;46.070;13.222;2023-09-08T03:13:34;24.30;50.90
23377;DHT22;14353;46.070;13.222;2023-09-08T03:16:08;24.20;51.20
23377;DHT22;14353;46.070;13.222;2023-09-08T03:18:34;24.10;51.40
23377;DHT22;14353;46.070;13.222;2023-09-08T03:21:02;24.00;51.80
23377;DHT22;14353;46.070;13.222;2023-09-08T03:23:36;23.90;52.00
23377;DHT22;14353;46.070;13.222;2023-09-08T03:26:02;24.00;51.90
23377;DHT22;14353;46.070;13.222;2023-09-08T03:28:27;23.90;51.80
23377;DHT22;14353;46.070;13.222;2023-09-08T03:30:53;24.00;51.80
23377;DHT22;14353;46.070;13.222;2023-09-08T03:33:19;23.90;51.70
23377;DHT22;14353;46.070;13.222;2023-09-08T03:35:44;23.90;51.80
23377;DHT22;14353;46.070;13.222;2023-09-08T03:38:10;23.90;51.70
23377;DHT22;14353;46.070;13.222;2023-09-08T03:40:39;23.90;51.60
23377;DHT22;14353;46.070;13.222;2023-09-08T03:43:04;24.00;51.40
23377;DHT22;14353;46.070;13.222;2023-09-08T03:45:30;24.10;51.40
23377;DHT22;14353;46.070;13.222;2023-09-08T03:47:56;24.10;50.80
23377;DHT22;14353;46.070;13.222;2023-09-08T03:50:21;24.20;50.60
23377;DHT22;14353;46.070;13.222;2023-09-08T03:52:47;24.20;50.30
23377;DHT22;14353;46.070;13.222;2023-09-08T03:55:13;24.10;50.50
23377;DHT22;14353;46.070;13.222;2023-09-08T03:57:39;24.10;50.50
23377;DHT22;14353;46.070;13.222;2023-09-08T04:00:05;24.00;50.70
23377;DHT22;14353;46.070;13.222;2023-09-08T04:02:32;24.00;50.70
23377;DHT22;14353;46.070;13.222;2023-09-08T04:04:58;24.00;50.90
23377;DHT22;14353;46.070;13.222;2023-09-08T04:07:24;24.00;50.80
23377;DHT22;14353;46.070;13.222;2023-09-08T04:09:50;24.00;50.70
23377;DHT22;14353;46.070;13.222;2023-09-08T04:12:15;24.10;50.60
23377;DHT22;14353;46.070;13.222;2023-09-08T04:14:41;24.00;50.60
23377;DHT22;14353;46.070;13.222;2023-09-08T04:17:07;24.10;50.70
23377;DHT22;14353;46.070;13.222;2023-09-08T04:19:33;24.00;50.60
23377;DHT22;14353;46.070;13.222;2023-09-08T04:21:59;24.10;50.60
23377;DHT22;14353;46.070;13.222;2023-09-08T04:24:25;24.00;50.60
23377;DHT22;14353;46.070;13.222;2023-09-08T04:26:51;24.00;50.60
23377;DHT22;14353;46.070;13.222;2023-09-08T04:29:16;23.90;50.70
23377;DHT22;14353;46.070;13.222;2023-09-08T04:31:42;23.90;50.70
23377;DHT22;14353;46.070;13.222;2023-09-08T04:34:08;23.80;51.00
23377;DHT22;14353;46.070;13.222;2023-09-08T04:36:33;23.80;51.10
23377;DHT22;14353;46.070;13.222;2023-09-08T04:38:59;23.80;51.10
23377;DHT22;14353;46.070;13.222;2023-09-08T04:41:25;23.90;51.00
23377;DHT22;14353;46.070;13.222;2023-09-08T04:43:50;23.90;50.80
23377;DHT22;14353;46.070;13.222;2023-09-08T04:46:16;24.00;50.40
23377;DHT22;14353;46.070;13.222;2023-09-08T04:48:41;24.00;50.40
23377;DHT22;14353;46.070;13.222;2023-09-08T04:51:07;24.10;50.00
23377;DHT22;14353;46.070;13.222;2023-09-08T04:53:33;24.10;50.00
23377;DHT22;14353;46.070;13.222;2023-09-08T04:55:59;24.20;49.90
23377;DHT22;14353;46.070;13.222;2023-09-08T04:58:24;24.20;49.80
23377;DHT22;14353;46.070;13.222;2023-09-08T05:00:51;24.20;49.60
23377;DHT22;14353;46.070;13.222;2023-09-08T05:03:16;24.20;49.60
23377;DHT22;14353;46.070;13.222;2023-09-08T05:05:42;24.10;49.90
23377;DHT22;14353;46.070;13.222;2023-09-08T05:08:08;24.10;50.10
23377;DHT22;14353;46.070;13.222;2023-09-08T05:10:33;24.10;50.10
23377;DHT22;14353;46.070;13.222;2023-09-08T05:12:59;24.10;50.00
23377;DHT22;14353;46.070;13.222;2023-09-08T05:15:25;24.10;50.00
23377;DHT22;14353;46.070;13.222;2023-09-08T05:17:51;24.20;49.90
23377;DHT22;14353;46.070;13.222;2023-09-08T05:20:17;24.30;49.60
23377;DHT22;14353;46.070;13.222;2023-09-08T05:22:42;24.30;49.80
23377;DHT22;14353;46.070;13.222;2023-09-08T05:25:08;24.30;49.60
23377;DHT22;14353;46.070;13.222;2023-09-08T05:27:34;24.30;49.50
23377;DHT22;14353;46.070;13.222;2023-09-08T05:30:00;24.30;49.40
23377;DHT22;14353;46.070;13.222;2023-09-08T05:32:25;24.30;49.40
23377;DHT22;14353;46.070;13.222;2023-09-08T05:34:51;24.30;49.40
23377;DHT22;14353;46.070;13.222;2023-09-08T05:37:17;24.30;49.20
23377;DHT22;14353;46.070;13.222;2023-09-08T05:39:42;24.30;49.50
23377;DHT22;14353;46.070;13.222;2023-09-08T05:42:11;24.30;49.50
23377;DHT22;14353;46.070;13.222;2023-09-08T05:44:37;24.40;49.50
23377;DHT22;14353;46.070;13.222;2023-09-08T05:47:02;24.40;49.50
23377;DHT22;14353;46.070;13.222;2023-09-08T05:49:28;24.40;49.50
23377;DHT22;14353;46.070;13.222;2023-09-08T05:51:54;24.50;49.30
23377;DHT22;14353;46.070;13.222;2023-09-08T05:54:19;24.50;49.20
23377;DHT22;14353;46.070;13.222;2023-09-08T05:56:45;24.60;49.00
23377;DHT22;14353;46.070;13.222;2023-09-08T05:59:11;24.60;49.00
23377;DHT22;14353;46.070;13.222;2023-09-08T06:01:36;24.60;49.00
23377;DHT22;14353;46.070;13.222;2023-09-08T06:04:02;24.60;48.90
23377;DHT22;14353;46.070;13.222;2023-09-08T06:06:28;24.50;49.00
23377;DHT22;14353;46.070;13.222;2023-09-08T06:08:54;24.60;49.00
23377;DHT22;14353;46.070;13.222;2023-09-08T06:11:20;24.60;49.00
23377;DHT22;14353;46.070;13.222;2023-09-08T06:13:46;24.60;49.00
23377;DHT22;14353;46.070;13.222;2023-09-08T06:16:12;24.60;49.30
23377;DHT22;14353;46.070;13.222;2023-09-08T06:18:38;24.60;49.10
23377;DHT22;14353;46.070;13.222;2023-09-08T06:21:07;24.70;49.20
23377;DHT22;14353;46.070;13.222;2023-09-08T06:23:36;24.80;49.20
23377;DHT22;14353;46.070;13.222;2023-09-08T06:26:03;24.80;49.10
23377;DHT22;14353;46.070;13.222;2023-09-08T06:28:28;24.90;49.10
23377;DHT22;14353;46.070;13.222;2023-09-08T06:30:54;24.90;48.90
23377;DHT22;14353;46.070;13.222;2023-09-08T06:33:20;25.00;48.90
23377;DHT22;14353;46.070;13.222;2023-09-08T06:35:47;25.00;48.80
23377;DHT22;14353;46.070;13.222;2023-09-08T06:38:13;25.00;48.70
23377;DHT22;14353;46.070;13.222;2023-09-08T06:40:39;25.10;48.70
23377;DHT22;14353;46.070;13.222;2023-09-08T06:43:05;25.20;48.60
23377;DHT22;14353;46.070;13.222;2023-09-08T06:45:31;25.20;48.50
23377;DHT22;14353;46.070;13.222;2023-09-08T06:47:57;25.20;48.40
23377;DHT22;14353;46.070;13.222;2023-09-08T06:50:23;25.30;48.50
23377;DHT22;14353;46.070;13.222;2023-09-08T06:52:49;25.30;48.50
23377;DHT22;14353;46.070;13.222;2023-09-08T06:55:16;25.30;48.50
23377;DHT22;14353;46.070;13.222;2023-09-08T06:57:45;25.30;48.50
23377;DHT22;14353;46.070;13.222;2023-09-08T07:00:11;25.40;48.50
23377;DHT22;14353;46.070;13.222;2023-09-08T07:02:38;25.40;48.50
23377;DHT22;14353;46.070;13.222;2023-09-08T07:05:04;25.40;48.30
23377;DHT22;14353;46.070;13.222;2023-09-08T07:07:36;25.50;48.30
23377;DHT22;14353;46.070;13.222;2023-09-08T07:10:03;25.50;48.30
23377;DHT22;14353;46.070;13.222;2023-09-08T07:12:30;25.60;48.10
23377;DHT22;14353;46.070;13.222;2023-09-08T07:14:56;25.70;48.10
23377;DHT22;14353;46.070;13.222;2023-09-08T07:17:22;25.70;48.00
23377;DHT22;14353;46.070;13.222;2023-09-08T07:19:49;25.80;48.00
23377;DHT22;14353;46.070;13.222;2023-09-08T07:22:15;25.80;47.80
23377;DHT22;14353;46.070;13.222;2023-09-08T07:24:41;25.80;47.90
23377;DHT22;14353;46.070;13.222;2023-09-08T07:27:07;25.90;47.70
23377;DHT22;14353;46.070;13.222;2023-09-08T07:29:33;25.90;47.70
23377;DHT22;14353;46.070;13.222;2023-09-08T07:31:59;25.90;47.60
23377;DHT22;14353;46.070;13.222;2023-09-08T07:34:24;26.00;47.50
23377;DHT22;14353;46.070;13.222;2023-09-08T07:36:50;26.00;47.40
23377;DHT22;14353;46.070;13.222;2023-09-08T07:39:16;26.00;47.50
23377;DHT22;14353;46.070;13.222;2023-09-08T07:41:41;26.00;47.40
23377;DHT22;14353;46.070;13.222;2023-09-08T07:44:07;26.10;47.30
23377;DHT22;14353;46.070;13.222;2023-09-08T07:46:33;26.20;47.30
23377;DHT22;14353;46.070;13.222;2023-09-08T07:48:59;26.20;47.40
23377;DHT22;14353;46.070;13.222;2023-09-08T07:51:26;26.20;47.10
23377;DHT22;14353;46.070;13.222;2023-09-08T07:53:53;26.20;47.00
23377;DHT22;14353;46.070;13.222;2023-09-08T07:56:19;26.30;46.80
23377;DHT22;14353;46.070;13.222;2023-09-08T07:58:44;26.30;46.70
23377;DHT22;14353;46.070;13.222;2023-09-08T08:01:12;26.40;46.60
23377;DHT22;14353;46.070;13.222;2023-09-08T08:03:37;26.40;46.40
23377;DHT22;14353;46.070;13.222;2023-09-08T08:06:03;26.40;46.30
23377;DHT22;14353;46.070;13.222;2023-09-08T08:08:29;26.50;46.40
23377;DHT22;14353;46.070;13.222;2023-09-08T08:10:55;26.50;46.50
23377;DHT22;14353;46.070;13.222;2023-09-08T08:13:21;26.50;46.50
23377;DHT22;14353;46.070;13.222;2023-09-08T08:15:47;26.60;46.40
23377;DHT22;14353;46.070;13.222;2023-09-08T08:18:13;26.60;46.70
23377;DHT22;14353;46.070;13.222;2023-09-08T08:20:39;26.60;46.60
23377;DHT22;14353;46.070;13.222;2023-09-08T08:23:06;26.60;46.60
23377;DHT22;14353;46.070;13.222;2023-09-08T08:25:32;26.70;46.60
23377;DHT22;14353;46.070;13.222;2023-09-08T08:27:58;26.70;46.70
23377;DHT22;14353;46.070;13.222;2023-09-08T08:30:26;26.80;46.60
23377;DHT22;14353;46.070;13.222;2023-09-08T08:32:52;26.80;46.60
23377;DHT22;14353;46.070;13.222;2023-09-08T08:35:19;26.80;46.00
23377;DHT22;14353;46.070;13.222;2023-09-08T08:37:45;26.90;46.10
23377;DHT22;14353;46.070;13.222;2023-09-08T08:40:11;26.90;46.00
23377;DHT22;14353;46.070;13.222;2023-09-08T08:42:38;27.00;46.00
23377;DHT22;14353;46.070;13.222;2023-09-08T08:45:05;27.00;46.00
23377;DHT22;14353;46.070;13.222;2023-09-08T08:47:31;27.00;45.90
23377;DHT22;14353;46.070;13.222;2023-09-08T08:49:58;27.00;45.80
23377;DHT22;14353;46.070;13.222;2023-09-08T08:52:29;27.10;45.70
23377;DHT22;14353;46.070;13.222;2023-09-08T08:54:55;27.10;45.80
23377;DHT22;14353;46.070;13.222;2023-09-08T08:57:24;27.10;45.50
23377;DHT22;14353;46.070;13.222;2023-09-08T08:59:53;27.10;45.30
23377;DHT22;14353;46.070;13.222;2023-09-08T09:02:18;27.20;45.20
23377;DHT22;14353;46.070;13.222;2023-09-08T09:04:45;27.20;45.00
23377;DHT22;14353;46.070;13.222;2023-09-08T09:07:11;27.20;44.80
23377;DHT22;14353;46.070;13.222;2023-09-08T09:09:37;27.30;44.90
23377;DHT22;14353;46.070;13.222;2023-09-08T09:12:06;27.30;44.60
23377;DHT22;14353;46.070;13.222;2023-09-08T09:14:32;27.30;44.50
23377;DHT22;14353;46.070;13.222;2023-09-08T09:16:59;27.30;44.20
23377;DHT22;14353;46.070;13.222;2023-09-08T09:19:25;27.40;44.10
23377;DHT22;14353;46.070;13.222;2023-09-08T09:21:53;27.40;44.00
23377;DHT22;14353;46.070;13.222;2023-09-08T09:27:03;27.50;44.00
23377;DHT22;14353;46.070;13.222;2023-09-08T09:29:31;27.50;43.90
23377;DHT22;14353;46.070;13.222;2023-09-08T09:32:06;27.50;43.80
23377;DHT22;14353;46.070;13.222;2023-09-08T09:34:35;27.50;43.60
23377;DHT22;14353;46.070;13.222;2023-09-08T09:37:01;27.60;43.70
23377;DHT22;14353;46.070;13.222;2023-09-08T09:39:27;27.60;43.50
23377;DHT22;14353;46.070;13.222;2023-09-08T09:41:57;27.60;43.30
23377;DHT22;14353;46.070;13.222;2023-09-08T09:44:24;27.60;43.20
23377;DHT22;14353;46.070;13.222;2023-09-08T09:46:53;27.70;43.00
23377;DHT22;14353;46.070;13.222;2023-09-08T09:49:19;27.70;43.10
23377;DHT22;14353;46.070;13.222;2023-09-08T09:51:50;27.70;42.80
23377;DHT22;14353;46.070;13.222;2023-09-08T09:54:19;27.80;42.80
23377;DHT22;14353;46.070;13.222;2023-09-08T09:56:45;27.80;42.80
23377;DHT22;14353;46.070;13.222;2023-09-08T09:59:14;27.80;42.70
23377;DHT22;14353;46.070;13.222;2023-09-08T10:01:41;27.80;42.60
23377;DHT22;14353;46.070;13.222;2023-09-08T10:04:07;27.90;42.60
23377;DHT22;14353;46.070;13.222;2023-09-08T10:06:35;27.90;42.40
23377;DHT22;14353;46.070;13.222;2023-09-08T10:09:02;27.90;42.40
23377;DHT22;14353;46.070;13.222;2023-09-08T10:11:46;27.90;42.30
23377;DHT22;14353;46.070;13.222;2023-09-08T10:14:13;27.90;42.20
23377;DHT22;14353;46.070;13.222;2023-09-08T10:16:40;28.00;42.10
23377;DHT22;14353;46.070;13.222;2023-09-08T10:19:09;28.00;41.80
23377;DHT22;14353;46.070;13.222;2023-09-08T10:21:40;28.00;41.80
23377;DHT22;14353;46.070;13.222;2023-09-08T10:26:44;28.10;41.80
23377;DHT22;14353;46.070;13.222;2023-09-08T10:29:12;28.20;41.30
23377;DHT22;14353;46.070;13.222;2023-09-08T10:31:39;28.20;41.50
23377;DHT22;14353;46.070;13.222;2023-09-08T10:34:05;28.20;41.50
23377;DHT22;14353;46.070;13.222;2023-09-08T10:36:32;28.20;41.40
23377;DHT22;14353;46.070;13.222;2023-09-08T10:39:39;28.30;41.30
23377;DHT22;14353;46.070;13.222;2023-09-08T10:44:44;28.40;41.30
23377;DHT22;14353;46.070;13.222;2023-09-08T10:47:10;28.40;41.20
23377;DHT22;14353;46.070;13.222;2023-09-08T10:49:36;28.40;41.00
23377;DHT22;14353;46.070;13.222;2023-09-08T10:52:11;28.50;41.20
23377;DHT22;14353;46.070;13.222;2023-09-08T10:54:44;28.50;41.10
23377;DHT22;14353;46.070;13.222;2023-09-08T10:57:17;28.60;41.00
23377;DHT22;14353;46.070;13.222;2023-09-08T10:59:56;28.60;41.10
23377;DHT22;14353;46.070;13.222;2023-09-08T11:02:42;28.60;41.10
23377;DHT22;14353;46.070;13.222;2023-09-08T11:05:10;28.60;40.80
23377;DHT22;14353;46.070;13.222;2023-09-08T11:07:37;28.70;41.00
23377;DHT22;14353;46.070;13.222;2023-09-08T11:10:04;28.70;40.80
23377;DHT22;14353;46.070;13.222;2023-09-08T11:12:30;28.70;40.90
23377;DHT22;14353;46.070;13.222;2023-09-08T11:14:57;28.70;40.60
23377;DHT22;14353;46.070;13.222;2023-09-08T11:17:26;28.80;40.40
23377;DHT22;14353;46.070;13.222;2023-09-08T11:19:53;28.90;40.30
23377;DHT22;14353;46.070;13.222;2023-09-08T11:22:25;28.90;40.10
23377;DHT22;14353;46.070;13.222;2023-09-08T11:24:56;28.90;40.10
23377;DHT22;14353;46.070;13.222;2023-09-08T11:27:27;29.00;40.10
23377;DHT22;14353;46.070;13.222;2023-09-08T11:29:54;29.10;39.70
23377;DHT22;14353;46.070;13.222;2023-09-08T11:32:20;29.10;39.80
23377;DHT22;14353;46.070;13.222;2023-09-08T11:34:45;29.10;38.90
23377;DHT22;14353;46.070;13.222;2023-09-08T11:37:12;29.20;39.60
23377;DHT22;14353;46.070;13.222;2023-09-08T11:39:47;29.20;39.40
23377;DHT22;14353;46.070;13.222;2023-09-08T11:42:15;29.20;40.30
23377;DHT22;14353;46.070;13.222;2023-09-08T11:44:41;29.30;39.60
23377;DHT22;14353;46.070;13.222;2023-09-08T11:47:09;29.30;39.40
23377;DHT22;14353;46.070;13.222;2023-09-08T11:49:40;29.40;39.40
23377;DHT22;14353;46.070;13.222;2023-09-08T11:52:07;29.40;39.40
23377;DHT22;14353;46.070;13.222;2023-09-08T11:54:37;29.40;39.00
23377;DHT22;14353;46.070;13.222;2023-09-08T11:57:06;29.50;39.10
23377;DHT22;14353;46.070;13.222;2023-09-08T11:59:34;29.50;38.90
23377;DHT22;14353;46.070;13.222;2023-09-08T12:02:01;29.60;38.90
23377;DHT22;14353;46.070;13.222;2023-09-08T12:04:28;29.60;39.10
23377;DHT22;14353;46.070;13.222;2023-09-08T12:06:54;29.60;38.70
23377;DHT22;14353;46.070;13.222;2023-09-08T12:09:25;29.60;38.60
23377;DHT22;14353;46.070;13.222;2023-09-08T12:11:52;29.70;38.40
23377;DHT22;14353;46.070;13.222;2023-09-08T12:14:18;29.80;38.50
23377;DHT22;14353;46.070;13.222;2023-09-08T12:16:45;29.80;38.20
23377;DHT22;14353;46.070;13.222;2023-09-08T12:19:30;29.80;38.30
23377;DHT22;14353;46.070;13.222;2023-09-08T12:22:00;29.80;38.30
23377;DHT22;14353;46.070;13.222;2023-09-08T12:24:55;29.80;38.20
23377;DHT22;14353;46.070;13.222;2023-09-08T12:27:26;29.90;38.30
23377;DHT22;14353;46.070;13.222;2023-09-08T12:29:57;29.90;38.10
23377;DHT22;14353;46.070;13.222;2023-09-08T12:32:25;30.00;38.20
23377;DHT22;14353;46.070;13.222;2023-09-08T12:34:52;30.00;38.10
23377;DHT22;14353;46.070;13.222;2023-09-08T12:37:22;30.10;37.90
23377;DHT22;14353;46.070;13.222;2023-09-08T12:39:48;30.10;38.00
23377;DHT22;14353;46.070;13.222;2023-09-08T12:42:14;30.10;38.00
23377;DHT22;14353;46.070;13.222;2023-09-08T12:44:41;30.20;37.90
23377;DHT22;14353;46.070;13.222;2023-09-08T12:47:09;30.20;37.90
23377;DHT22;14353;46.070;13.222;2023-09-08T12:49:36;30.20;37.90
23377;DHT22;14353;46.070;13.222;2023-09-08T12:52:03;30.30;37.60
23377;DHT22;14353;46.070;13.222;2023-09-08T12:54:30;30.30;37.60
23377;DHT22;14353;46.070;13.222;2023-09-08T12:56:56;30.40;37.40
23377;DHT22;14353;46.070;13.222;2023-09-08T12:59:23;30.40;37.60
23377;DHT22;14353;46.070;13.222;2023-09-08T13:01:48;30.40;37.50
23377;DHT22;14353;46.070;13.222;2023-09-08T13:04:15;30.50;36.70
23377;DHT22;14353;46.070;13.222;2023-09-08T13:06:42;30.60;37.10
23377;DHT22;14353;46.070;13.222;2023-09-08T13:09:08;30.60;36.60
23377;DHT22;14353;46.070;13.222;2023-09-08T13:11:35;30.60;36.70
23377;DHT22;14353;46.070;13.222;2023-09-08T13:14:01;30.70;36.70
23377;DHT22;14353;46.070;13.222;2023-09-08T13:16:27;30.70;36.70
23377;DHT22;14353;46.070;13.222;2023-09-08T13:18:55;30.70;36.50
23377;DHT22;14353;46.070;13.222;2023-09-08T13:21:21;30.80;36.40
23377;DHT22;14353;46.070;13.222;2023-09-08T13:23:47;30.80;36.40
23377;DHT22;14353;46.070;13.222;2023-09-08T13:26:14;30.90;36.20
23377;DHT22;14353;46.070;13.222;2023-09-08T13:28:39;30.90;35.80
23377;DHT22;14353;46.070;13.222;2023-09-08T13:31:05;31.00;35.90
23377;DHT22;14353;46.070;13.222;2023-09-08T13:33:31;30.90;35.70
23377;DHT22;14353;46.070;13.222;2023-09-08T13:35:57;31.00;35.40
23377;DHT22;14353;46.070;13.222;2023-09-08T13:38:24;31.00;35.30
23377;DHT22;14353;46.070;13.222;2023-09-08T13:40:50;31.00;35.30
23377;DHT22;14353;46.070;13.222;2023-09-08T13:43:16;31.00;35.40
23377;DHT22;14353;46.070;13.222;2023-09-08T13:45:42;31.00;35.40
23377;DHT22;14353;46.070;13.222;2023-09-08T13:48:09;31.00;35.30
23377;DHT22;14353;46.070;13.222;2023-09-08T13:50:37;31.00;35.50
23377;DHT22;14353;46.070;13.222;2023-09-08T13:53:03;31.00;35.50
23377;DHT22;14353;46.070;13.222;2023-09-08T13:55:30;31.10;35.40
23377;DHT22;14353;46.070;13.222;2023-09-08T13:57:56;31.10;35.30
23377;DHT22;14353;46.070;13.222;2023-09-08T14:00:23;31.10;35.50
23377;DHT22;14353;46.070;13.222;2023-09-08T14:02:49;31.10;35.30
23377;DHT22;14353;46.070;13.222;2023-09-08T14:05:15;31.20;35.20
23377;DHT22;14353;46.070;13.222;2023-09-08T14:07:42;31.20;35.10
23377;DHT22;14353;46.070;13.222;2023-09-08T14:10:08;31.20;35.20
23377;DHT22;14353;46.070;13.222;2023-09-08T14:12:35;31.20;35.20
23377;DHT22;14353;46.070;13.222;2023-09-08T14:15:01;31.20;34.70
23377;DHT22;14353;46.070;13.222;2023-09-08T14:17:28;31.20;34.80
23377;DHT22;14353;46.070;13.222;2023-09-08T14:19:54;31.20;35.00
23377;DHT22;14353;46.070;13.222;2023-09-08T14:22:21;31.20;34.70
23377;DHT22;14353;46.070;13.222;2023-09-08T14:24:48;31.30;34.80
23377;DHT22;14353;46.070;13.222;2023-09-08T14:27:14;31.30;34.70
23377;DHT22;14353;46.070;13.222;2023-09-08T14:29:41;31.40;34.70
23377;DHT22;14353;46.070;13.222;2023-09-08T14:32:08;31.40;34.10
23377;DHT22;14353;46.070;13.222;2023-09-08T14:34:34;31.50;32.80
23377;DHT22;14353;46.070;13.222;2023-09-08T14:37:00;31.50;33.40
23377;DHT22;14353;46.070;13.222;2023-09-08T14:39:25;31.50;33.00
23377;DHT22;14353;46.070;13.222;2023-09-08T14:41:51;31.50;33.50
23377;DHT22;14353;46.070;13.222;2023-09-08T14:44:19;31.50;32.70
23377;DHT22;14353;46.070;13.222;2023-09-08T14:46:46;31.50;32.50
23377;DHT22;14353;46.070;13.222;2023-09-08T14:49:12;31.60;32.90
23377;DHT22;14353;46.070;13.222;2023-09-08T14:51:41;31.50;33.50
23377;DHT22;14353;46.070;13.222;2023-09-08T14:54:07;31.50;33.40
23377;DHT22;14353;46.070;13.222;2023-09-08T14:56:33;31.50;33.70
23377;DHT22;14353;46.070;13.222;2023-09-08T14:58:59;31.60;33.90
23377;DHT22;14353;46.070;13.222;2023-09-08T15:01:26;31.60;33.50
23377;DHT22;14353;46.070;13.222;2023-09-08T15:03:52;31.60;33.70
23377;DHT22;14353;46.070;13.222;2023-09-08T15:06:20;31.60;33.60
23377;DHT22;14353;46.070;13.222;2023-09-08T15:08:47;31.60;33.70
23377;DHT22;14353;46.070;13.222;2023-09-08T15:11:13;31.70;33.70
23377;DHT22;14353;46.070;13.222;2023-09-08T15:13:39;31.70;33.20
23377;DHT22;14353;46.070;13.222;2023-09-08T15:16:05;31.80;33.40
23377;DHT22;14353;46.070;13.222;2023-09-08T15:18:32;31.70;33.50
23377;DHT22;14353;46.070;13.222;2023-09-08T15:20:57;31.80;33.50
23377;DHT22;14353;46.070;13.222;2023-09-08T15:23:23;31.80;33.70